sensor_id;sensor_type;location;lat;lon;timestamp;pressure;altitude;pressure_sealevel;temperature;humidity
6853;BME280;3465;42.144;24.722;2023-08-01T00:01:02;148327.25;;;21.61;100.00
6853;BME280;3465;42.144;24.722;2023-08-01T00:03:28;148334.81;;;21.64;100.00
6853;BME280;3465;42.144;24.722;2023-08-01T00:05:53;148304.50;;;21.52;100.00
6853;BME280;3465;42.144;24.722;2023-08-01T00:08:20;148324.72;;;21.60;100.00
6853;BME280;3465;42.144;24.722;2023-08-01T00:10:46;148264.06;;;21.36;99.10
6853;BME280;3465;42.144;24.722;2023-08-01T00:13:11;148304.50;;;21.52;99.34
6853;BME280;3465;42.144;24.722;2023-08-01T00:15:37;148324.72;;;21.60;97.95
6853;BME280;3465;42.144;24.722;2023-08-01T00:18:03;148327.25;;;21.61;98.32
6853;BME280;3465;42.144;24.722;2023-08-01T00:20:28;148317.09;;;21.57;98.12
6853;BME280;3465;42.144;24.722;2023-08-01T00:22:54;148320.91;;;21.58;99.29
6853;BME280;3465;42.144;24.722;2023-08-01T00:25:20;148318.38;;;21.57;99.12
6853;BME280;3465;42.144;24.722;2023-08-01T00:27:45;148301.94;;;21.51;97.79
6853;BME280;3465;42.144;24.722;2023-08-01T00:30:11;148307.03;;;21.53;96.54
6853;BME280;3465;42.144;24.722;2023-08-01T00:32:37;148305.75;;;21.52;95.98
6853;BME280;3465;42.144;24.722;2023-08-01T00:35:03;148294.38;;;21.48;96.78
6853;BME280;3465;42.144;24.722;2023-08-01T00:37:29;148276.66;;;21.41;96.02
6853;BME280;3465;42.144;24.722;2023-08-01T00:39:54;148251.44;;;21.31;96.13
6853;BME280;3465;42.144;24.722;2023-08-01T00:42:20;148270.38;;;21.38;95.91
6853;BME280;3465;42.144;24.722;2023-08-01T00:44:45;148271.66;;;21.39;96.09
6853;BME280;3465;42.144;24.722;2023-08-01T00:47:13;148173.09;;;20.99;96.30
6853;BME280;3465;42.144;24.722;2023-08-01T00:49:39;148228.66;;;21.21;97.53
6853;BME280;3465;42.144;24.722;2023-08-01T00:52:05;148178.16;;;21.01;97.07
6853;BME280;3465;42.144;24.722;2023-08-01T00:54:30;148213.50;;;21.15;96.02
6853;BME280;3465;42.144;24.722;2023-08-01T00:57:02;148179.38;;;21.02;97.21
6853;BME280;3465;42.144;24.722;2023-08-01T00:59:28;148185.72;;;21.04;98.95
6853;BME280;3465;42.144;24.722;2023-08-01T01:01:53;148171.81;;;20.99;98.22
6853;BME280;3465;42.144;24.722;2023-08-01T01:04:19;148155.34;;;20.92;98.64
6853;BME280;3465;42.144;24.722;2023-08-01T01:06:48;148155.34;;;20.92;99.89
6853;BME280;3465;42.144;24.722;2023-08-01T01:09:17;148154.09;;;20.92;97.50
6853;BME280;3465;42.144;24.722;2023-08-01T01:11:43;148156.63;;;20.93;96.31
6853;BME280;3465;42.144;24.722;2023-08-01T01:14:09;148090.94;;;20.67;94.97
6853;BME280;3465;42.144;24.722;2023-08-01T01:16:34;148138.91;;;20.86;95.52
6853;BME280;3465;42.144;24.722;2023-08-01T01:18:59;148147.75;;;20.89;95.87
6853;BME280;3465;42.144;24.722;2023-08-01T01:21:25;148126.31;;;20.81;96.81
6853;BME280;3465;42.144;24.722;2023-08-01T01:23:51;148126.31;;;20.81;96.95
6853;BME280;3465;42.144;24.722;2023-08-01T01:26:18;148125.06;;;20.80;97.20
6853;BME280;3465;42.144;24.722;2023-08-01T01:28:48;148112.41;;;20.75;96.61
6853;BME280;3465;42.144;24.722;2023-08-01T01:31:15;148111.13;;;20.75;96.46
6853;BME280;3465;42.144;24.722;2023-08-01T01:33:41;148114.94;;;20.76;96.27
6853;BME280;3465;42.144;24.722;2023-08-01T01:36:07;148084.63;;;20.64;96.36
6853;BME280;3465;42.144;24.722;2023-08-01T01:38:32;148103.56;;;20.72;96.36
6853;BME280;3465;42.144;24.722;2023-08-01T01:40:57;148072.00;;;20.59;96.45
6853;BME280;3465;42.144;24.722;2023-08-01T01:43:23;148098.50;;;20.70;96.27
6853;BME280;3465;42.144;24.722;2023-08-01T01:45:48;148085.91;;;20.65;95.99
6853;BME280;3465;42.144;24.722;2023-08-01T01:48:13;148084.63;;;20.64;96.10
6853;BME280;3465;42.144;24.722;2023-08-01T01:50:39;148077.06;;;20.61;96.64
6853;BME280;3465;42.144;24.722;2023-08-01T01:53:04;148074.50;;;20.60;97.84
6853;BME280;3465;42.144;24.722;2023-08-01T01:55:30;148056.84;;;20.53;97.90
6853;BME280;3465;42.144;24.722;2023-08-01T01:57:55;148040.44;;;20.47;98.63
6853;BME280;3465;42.144;24.722;2023-08-01T02:00:20;148026.53;;;20.41;99.67
6853;BME280;3465;42.144;24.722;2023-08-01T02:02:46;148022.75;;;20.40;99.04
6853;BME280;3465;42.144;24.722;2023-08-01T02:05:11;148006.34;;;20.33;99.63
6853;BME280;3465;42.144;24.722;2023-08-01T02:07:36;148010.13;;;20.35;98.74
6853;BME280;3465;42.144;24.722;2023-08-01T02:10:02;148002.53;;;20.32;99.46
6853;BME280;3465;42.144;24.722;2023-08-01T02:12:28;148008.88;;;20.34;99.25
6853;BME280;3465;42.144;24.722;2023-08-01T02:14:57;147991.19;;;20.27;98.95
6853;BME280;3465;42.144;24.722;2023-08-01T02:17:22;147971.00;;;20.19;100.00
6853;BME280;3465;42.144;24.722;2023-08-01T02:19:48;147949.47;;;20.11;100.00
6853;BME280;3465;42.144;24.722;2023-08-01T02:22:13;147949.47;;;20.11;100.00
6853;BME280;3465;42.144;24.722;2023-08-01T02:24:38;147946.97;;;20.10;100.00
6853;BME280;3465;42.144;24.722;2023-08-01T02:27:04;147955.81;;;20.13;100.00
6853;BME280;3465;42.144;24.722;2023-08-01T02:29:29;147962.16;;;20.16;100.00
6853;BME280;3465;42.144;24.722;2023-08-01T02:31:55;147971.00;;;20.19;100.00
6853;BME280;3465;42.144;24.722;2023-08-01T02:34:21;147915.41;;;19.97;99.75
6853;BME280;3465;42.144;24.722;2023-08-01T02:36:46;147945.69;;;20.09;100.00
6853;BME280;3465;42.144;24.722;2023-08-01T02:39:12;147945.69;;;20.09;100.00
6853;BME280;3465;42.144;24.722;2023-08-01T02:41:37;147924.25;;;20.01;100.00
6853;BME280;3465;42.144;24.722;2023-08-01T02:44:03;147905.31;;;19.93;100.00
6853;BME280;3465;42.144;24.722;2023-08-01T02:46:28;147935.63;;;20.05;100.00
6853;BME280;3465;42.144;24.722;2023-08-01T02:48:55;147934.34;;;20.05;100.00
6853;BME280;3465;42.144;24.722;2023-08-01T02:51:20;147936.84;;;20.06;99.99
6853;BME280;3465;42.144;24.722;2023-08-01T02:53:46;147938.13;;;20.06;98.88
6853;BME280;3465;42.144;24.722;2023-08-01T02:56:11;147934.34;;;20.05;97.79
6853;BME280;3465;42.144;24.722;2023-08-01T02:58:37;147934.34;;;20.05;98.84
6853;BME280;3465;42.144;24.722;2023-08-01T03:01:08;147943.19;;;20.08;98.62
6853;BME280;3465;42.144;24.722;2023-08-01T03:03:35;147948.25;;;20.10;98.04
6853;BME280;3465;42.144;24.722;2023-08-01T03:06:02;147939.41;;;20.07;98.57
6853;BME280;3465;42.144;24.722;2023-08-01T03:08:27;147938.13;;;20.06;97.87
6853;BME280;3465;42.144;24.722;2023-08-01T03:10:53;147935.63;;;20.05;98.32
6853;BME280;3465;42.144;24.722;2023-08-01T03:13:19;147929.28;;;20.03;98.49
6853;BME280;3465;42.144;24.722;2023-08-01T03:15:44;147938.13;;;20.06;98.02
6853;BME280;3465;42.144;24.722;2023-08-01T03:18:10;147921.72;;;20.00;98.28
6853;BME280;3465;42.144;24.722;2023-08-01T03:20:35;147943.19;;;20.08;98.30
6853;BME280;3465;42.144;24.722;2023-08-01T03:23:01;147943.19;;;20.08;99.00
6853;BME280;3465;42.144;24.722;2023-08-01T03:25:27;147930.56;;;20.03;97.61
6853;BME280;3465;42.144;24.722;2023-08-01T03:27:52;147925.50;;;20.01;98.50
6853;BME280;3465;42.144;24.722;2023-08-01T03:30:19;147904.06;;;19.92;98.88
6853;BME280;3465;42.144;24.722;2023-08-01T03:32:46;147901.50;;;19.91;98.85
6853;BME280;3465;42.144;24.722;2023-08-01T03:35:12;147899.00;;;19.90;98.60
6853;BME280;3465;42.144;24.722;2023-08-01T03:37:39;147897.72;;;19.90;99.07
6853;BME280;3465;42.144;24.722;2023-08-01T03:40:05;147905.31;;;19.93;99.15
6853;BME280;3465;42.144;24.722;2023-08-01T03:42:34;147895.22;;;19.89;98.89
6853;BME280;3465;42.144;24.722;2023-08-01T03:45:00;147847.28;;;19.70;99.51
6853;BME280;3465;42.144;24.722;2023-08-01T03:47:25;147880.09;;;19.83;99.18
6853;BME280;3465;42.144;24.722;2023-08-01T03:49:51;147900.28;;;19.91;99.43
6853;BME280;3465;42.144;24.722;2023-08-01T03:52:16;147849.78;;;19.71;98.72
6853;BME280;3465;42.144;24.722;2023-08-01T03:54:41;147827.09;;;19.62;98.66
6853;BME280;3465;42.144;24.722;2023-08-01T03:57:07;147907.84;;;19.94;98.90
6853;BME280;3465;42.144;24.722;2023-08-01T03:59:32;147921.72;;;20.00;98.61
6853;BME280;3465;42.144;24.722;2023-08-01T04:01:58;147938.13;;;20.06;97.54
6853;BME280;3465;42.144;24.722;2023-08-01T04:04:23;147944.47;;;20.09;97.50
6853;BME280;3465;42.144;24.722;2023-08-01T04:06:49;147930.56;;;20.03;97.16
6853;BME280;3465;42.144;24.722;2023-08-01T04:09:14;147973.50;;;20.20;97.12
6853;BME280;3465;42.144;24.722;2023-08-01T04:11:40;147957.03;;;20.14;95.76
6853;BME280;3465;42.144;24.722;2023-08-01T04:14:05;147921.72;;;20.00;96.14
6853;BME280;3465;42.144;24.722;2023-08-01T04:16:30;147983.63;;;20.24;96.28
6853;BME280;3465;42.144;24.722;2023-08-01T04:18:56;147989.91;;;20.27;96.16
6853;BME280;3465;42.144;24.722;2023-08-01T04:21:21;148007.59;;;20.34;95.80
6853;BME280;3465;42.144;24.722;2023-08-01T04:23:46;148020.25;;;20.39;95.96
6853;BME280;3465;42.144;24.722;2023-08-01T04:26:12;148010.13;;;20.35;96.28
6853;BME280;3465;42.144;24.722;2023-08-01T04:28:37;148041.72;;;20.47;94.79
6853;BME280;3465;42.144;24.722;2023-08-01T04:31:03;148059.38;;;20.54;94.79
6853;BME280;3465;42.144;24.722;2023-08-01T04:33:28;148036.66;;;20.45;94.97
6853;BME280;3465;42.144;24.722;2023-08-01T04:35:54;148060.66;;;20.55;93.73
6853;BME280;3465;42.144;24.722;2023-08-01T04:38:19;148108.63;;;20.74;92.83
6853;BME280;3465;42.144;24.722;2023-08-01T04:40:45;148111.13;;;20.75;91.05
6853;BME280;3465;42.144;24.722;2023-08-01T04:43:11;148150.31;;;20.90;91.02
6853;BME280;3465;42.144;24.722;2023-08-01T04:45:37;148128.84;;;20.82;91.53
6853;BME280;3465;42.144;24.722;2023-08-01T04:48:03;148180.66;;;21.02;92.13
6853;BME280;3465;42.144;24.722;2023-08-01T04:50:28;148226.16;;;21.20;88.77
6853;BME280;3465;42.144;24.722;2023-08-01T04:52:54;148261.53;;;21.35;88.74
6853;BME280;3465;42.144;24.722;2023-08-01T04:55:19;148277.94;;;21.41;88.10
6853;BME280;3465;42.144;24.722;2023-08-01T04:57:45;148318.38;;;21.57;86.99
6853;BME280;3465;42.144;24.722;2023-08-01T05:00:11;148336.09;;;21.64;86.51
6853;BME280;3465;42.144;24.722;2023-08-01T05:02:37;148356.31;;;21.72;87.17
6853;BME280;3465;42.144;24.722;2023-08-01T05:05:02;148295.66;;;21.48;86.79
6853;BME280;3465;42.144;24.722;2023-08-01T05:07:29;148374.03;;;21.79;86.55
6853;BME280;3465;42.144;24.722;2023-08-01T05:09:54;148396.81;;;21.88;85.26
6853;BME280;3465;42.144;24.722;2023-08-01T05:12:20;148401.84;;;21.90;85.14
6853;BME280;3465;42.144;24.722;2023-08-01T05:14:45;148347.47;;;21.69;84.68
6853;BME280;3465;42.144;24.722;2023-08-01T05:17:10;148398.03;;;21.89;84.89
6853;BME280;3465;42.144;24.722;2023-08-01T05:19:36;148430.91;;;22.02;84.79
6853;BME280;3465;42.144;24.722;2023-08-01T05:22:01;148382.88;;;21.83;84.25
6853;BME280;3465;42.144;24.722;2023-08-01T05:24:27;148457.50;;;22.12;84.77
6853;BME280;3465;42.144;24.722;2023-08-01T05:26:52;148473.94;;;22.19;85.18
6853;BME280;3465;42.144;24.722;2023-08-01T05:29:18;148473.94;;;22.19;83.97
6853;BME280;3465;42.144;24.722;2023-08-01T05:31:43;148537.16;;;22.44;84.15
6853;BME280;3465;42.144;24.722;2023-08-01T05:34:09;148577.66;;;22.60;83.52
6853;BME280;3465;42.144;24.722;2023-08-01T05:36:34;148604.19;;;22.71;83.41
6853;BME280;3465;42.144;24.722;2023-08-01T05:38:59;148620.66;;;22.77;82.42
6853;BME280;3465;42.144;24.722;2023-08-01T05:41:25;148647.25;;;22.88;80.02
6853;BME280;3465;42.144;24.722;2023-08-01T05:43:51;148685.16;;;23.03;79.62
6853;BME280;3465;42.144;24.722;2023-08-01T05:46:17;148720.63;;;23.17;79.91
6853;BME280;3465;42.144;24.722;2023-08-01T05:48:42;148754.81;;;23.30;78.71
6853;BME280;3465;42.144;24.722;2023-08-01T05:51:08;148783.94;;;23.42;78.47
6853;BME280;3465;42.144;24.722;2023-08-01T05:53:33;148813.03;;;23.53;78.33
6853;BME280;3465;42.144;24.722;2023-08-01T05:55:59;148833.28;;;23.61;76.67
6853;BME280;3465;42.144;24.722;2023-08-01T05:58:24;148799.09;;;23.48;75.46
6853;BME280;3465;42.144;24.722;2023-08-01T06:00:49;148826.94;;;23.59;73.57
6853;BME280;3465;42.144;24.722;2023-08-01T06:03:15;148859.84;;;23.72;72.39
6853;BME280;3465;42.144;24.722;2023-08-01T06:05:41;148888.97;;;23.83;72.27
6853;BME280;3465;42.144;24.722;2023-08-01T06:08:07;148913.03;;;23.93;71.45
6853;BME280;3465;42.144;24.722;2023-08-01T06:10:34;148952.38;;;24.09;71.00
6853;BME280;3465;42.144;24.722;2023-08-01T06:12:59;148943.50;;;24.05;68.06
6853;BME280;3465;42.144;24.722;2023-08-01T06:15:25;149041.00;;;24.44;67.43
6853;BME280;3465;42.144;24.722;2023-08-01T06:17:50;149073.94;;;24.57;66.65
6853;BME280;3465;42.144;24.722;2023-08-01T06:20:15;149113.25;;;24.72;66.50
6853;BME280;3465;42.144;24.722;2023-08-01T06:22:42;149198.13;;;25.06;66.33
6853;BME280;3465;42.144;24.722;2023-08-01T06:25:08;149291.94;;;25.43;63.83
6853;BME280;3465;42.144;24.722;2023-08-01T06:27:33;149406.06;;;25.88;62.70
6853;BME280;3465;42.144;24.722;2023-08-01T06:29:59;149525.25;;;26.35;60.70
6853;BME280;3465;42.144;24.722;2023-08-01T06:32:25;149729.59;;;27.16;57.38
6853;BME280;3465;42.144;24.722;2023-08-01T06:34:50;149881.94;;;27.76;54.59
6853;BME280;3465;42.144;24.722;2023-08-01T06:37:15;150124.63;;;28.72;49.85
6853;BME280;3465;42.144;24.722;2023-08-01T06:39:41;150390.31;;;29.77;46.58
6853;BME280;3465;42.144;24.722;2023-08-01T06:42:06;150696.94;;;30.98;43.66
6853;BME280;3465;42.144;24.722;2023-08-01T06:44:32;150951.66;;;31.98;40.94
6853;BME280;3465;42.144;24.722;2023-08-01T06:46:57;151124.88;;;32.67;39.79
6853;BME280;3465;42.144;24.722;2023-08-01T06:49:22;151277.84;;;33.27;37.89
6853;BME280;3465;42.144;24.722;2023-08-01T06:51:48;151504.81;;;34.16;36.16
6853;BME280;3465;42.144;24.722;2023-08-01T06:54:13;151407.88;;;33.78;34.95
6853;BME280;3465;42.144;24.722;2023-08-01T06:56:38;151485.69;;;34.09;35.01
6853;BME280;3465;42.144;24.722;2023-08-01T06:59:04;151754.91;;;35.15;33.39
6853;BME280;3465;42.144;24.722;2023-08-01T07:01:29;152031.97;;;36.24;32.11
6853;BME280;3465;42.144;24.722;2023-08-01T07:03:55;152299.06;;;37.28;30.50
6853;BME280;3465;42.144;24.722;2023-08-01T07:06:23;152502.28;;;38.08;28.53
6853;BME280;3465;42.144;24.722;2023-08-01T07:08:49;152712.06;;;38.91;27.35
6853;BME280;3465;42.144;24.722;2023-08-01T07:11:15;152891.22;;;39.61;26.35
6853;BME280;3465;42.144;24.722;2023-08-01T07:13:40;153080.69;;;40.35;25.76
6853;BME280;3465;42.144;24.722;2023-08-01T07:16:05;153224.13;;;40.91;25.15
6853;BME280;3465;42.144;24.722;2023-08-01T07:18:31;153165.16;;;40.68;25.39
6853;BME280;3465;42.144;24.722;2023-08-01T07:21:03;153025.59;;;40.14;25.44
6853;BME280;3465;42.144;24.722;2023-08-01T07:23:30;152993.63;;;40.01;25.51
6853;BME280;3465;42.144;24.722;2023-08-01T07:25:56;153239.47;;;40.97;24.49
6853;BME280;3465;42.144;24.722;2023-08-01T07:28:21;153514.97;;;42.05;23.59
6853;BME280;3465;42.144;24.722;2023-08-01T07:30:47;153677.75;;;42.69;22.71
6853;BME280;3465;42.144;24.722;2023-08-01T07:33:13;153621.38;;;42.47;22.40
6853;BME280;3465;42.144;24.722;2023-08-01T07:35:38;153632.88;;;42.52;22.06
6853;BME280;3465;42.144;24.722;2023-08-01T07:38:04;153579.03;;;42.30;22.65
6853;BME280;3465;42.144;24.722;2023-08-01T07:40:29;153407.31;;;41.63;22.95
6853;BME280;3465;42.144;24.722;2023-08-01T07:42:54;153407.31;;;41.63;23.06
6853;BME280;3465;42.144;24.722;2023-08-01T07:45:20;153452.16;;;41.81;22.93
6853;BME280;3465;42.144;24.722;2023-08-01T07:47:45;153399.66;;;41.60;23.07
6853;BME280;3465;42.144;24.722;2023-08-01T07:50:11;153721.34;;;42.86;22.16
6853;BME280;3465;42.144;24.722;2023-08-01T07:52:36;153949.66;;;43.75;21.50
6853;BME280;3465;42.144;24.722;2023-08-01T07:55:02;153999.75;;;43.95;21.15
6853;BME280;3465;42.144;24.722;2023-08-01T07:57:27;154117.78;;;44.41;20.48
6853;BME280;3465;42.144;24.722;2023-08-01T07:59:53;154075.38;;;44.25;20.55
6853;BME280;3465;42.144;24.722;2023-08-01T08:02:18;153882.94;;;43.49;21.37
6853;BME280;3465;42.144;24.722;2023-08-01T08:04:44;153981.72;;;43.88;21.21
6853;BME280;3465;42.144;24.722;2023-08-01T08:07:09;154069.00;;;44.22;21.31
6853;BME280;3465;42.144;24.722;2023-08-01T08:09:34;154130.59;;;44.46;20.89
6853;BME280;3465;42.144;24.722;2023-08-01T08:12:00;154180.69;;;44.66;20.60
6853;BME280;3465;42.144;24.722;2023-08-01T08:14:26;154184.53;;;44.67;20.54
6853;BME280;3465;42.144;24.722;2023-08-01T08:16:51;153897.09;;;43.55;21.36
6853;BME280;3465;42.144;24.722;2023-08-01T08:19:16;154021.50;;;44.04;20.82
6853;BME280;3465;42.144;24.722;2023-08-01T08:21:42;154184.53;;;44.67;20.78
6853;BME280;3465;42.144;24.722;2023-08-01T08:24:07;153997.13;;;43.94;20.87
6853;BME280;3465;42.144;24.722;2023-08-01T08:26:33;153836.78;;;43.31;21.56
6853;BME280;3465;42.144;24.722;2023-08-01T08:29:03;153541.84;;;42.16;22.09
6853;BME280;3465;42.144;24.722;2023-08-01T08:31:30;153525.22;;;42.09;22.37
6853;BME280;3465;42.144;24.722;2023-08-01T08:33:55;153581.63;;;42.31;22.37
6853;BME280;3465;42.144;24.722;2023-08-01T08:36:21;153266.34;;;41.08;22.57
6853;BME280;3465;42.144;24.722;2023-08-01T08:38:46;153475.19;;;41.90;21.97
6853;BME280;3465;42.144;24.722;2023-08-01T08:41:19;153743.16;;;42.95;21.29
6853;BME280;3465;42.144;24.722;2023-08-01T08:43:48;153899.66;;;43.56;21.35
6853;BME280;3465;42.144;24.722;2023-08-01T08:46:15;153994.59;;;43.93;20.49
6853;BME280;3465;42.144;24.722;2023-08-01T08:48:42;154175.50;;;44.64;20.10
6853;BME280;3465;42.144;24.722;2023-08-01T08:51:09;154079.22;;;44.26;20.09
6853;BME280;3465;42.144;24.722;2023-08-01T08:53:35;153977.88;;;43.87;20.79
6853;BME280;3465;42.144;24.722;2023-08-01T08:56:02;154094.69;;;44.32;19.69
6853;BME280;3465;42.144;24.722;2023-08-01T08:58:31;154294.94;;;45.11;19.70
6853;BME280;3465;42.144;24.722;2023-08-01T09:01:00;154188.38;;;44.69;19.61
6853;BME280;3465;42.144;24.722;2023-08-01T09:03:27;154217.91;;;44.80;19.63
6853;BME280;3465;42.144;24.722;2023-08-01T09:06:00;154251.22;;;44.93;19.17
6853;BME280;3465;42.144;24.722;2023-08-01T09:08:29;154330.84;;;45.25;19.18
6853;BME280;3465;42.144;24.722;2023-08-01T09:10:57;154364.22;;;45.38;19.01
6853;BME280;3465;42.144;24.722;2023-08-01T09:13:23;154396.34;;;45.50;19.00
6853;BME280;3465;42.144;24.722;2023-08-01T09:15:48;154495.22;;;45.89;18.63
6853;BME280;3465;42.144;24.722;2023-08-01T09:18:14;154442.56;;;45.68;18.94
6853;BME280;3465;42.144;24.722;2023-08-01T09:20:49;154206.31;;;44.76;19.23
6853;BME280;3465;42.144;24.722;2023-08-01T09:23:16;153888.13;;;43.51;19.93
6853;BME280;3465;42.144;24.722;2023-08-01T09:25:42;153353.47;;;41.42;21.62
6853;BME280;3465;42.144;24.722;2023-08-01T09:28:34;152768.34;;;39.13;24.39
6853;BME280;3465;42.144;24.722;2023-08-01T09:31:00;152927.03;;;39.75;23.52
6853;BME280;3465;42.144;24.722;2023-08-01T09:33:25;153235.63;;;40.96;22.21
6853;BME280;3465;42.144;24.722;2023-08-01T09:35:51;153362.44;;;41.46;21.05
6853;BME280;3465;42.144;24.722;2023-08-01T09:38:16;153421.44;;;41.69;21.12
6853;BME280;3465;42.144;24.722;2023-08-01T09:40:44;153650.84;;;42.59;20.83
6853;BME280;3465;42.144;24.722;2023-08-01T09:43:13;153688.06;;;42.73;20.16
6853;BME280;3465;42.144;24.722;2023-08-01T09:45:50;153854.72;;;43.38;19.73
6853;BME280;3465;42.144;24.722;2023-08-01T09:48:23;153770.09;;;43.05;19.71
6853;BME280;3465;42.144;24.722;2023-08-01T09:50:49;153625.22;;;42.48;20.65
6853;BME280;3465;42.144;24.722;2023-08-01T09:53:15;153754.69;;;42.99;20.37
6853;BME280;3465;42.144;24.722;2023-08-01T09:55:43;153989.44;;;43.91;19.81
6853;BME280;3465;42.144;24.722;2023-08-01T09:58:13;153879.09;;;43.48;19.77
6853;BME280;3465;42.144;24.722;2023-08-01T10:00:39;153695.75;;;42.76;19.96
6853;BME280;3465;42.144;24.722;2023-08-01T10:03:05;153000.00;;;40.04;22.95
6853;BME280;3465;42.144;24.722;2023-08-01T10:05:31;153044.78;;;40.21;23.23
6853;BME280;3465;42.144;24.722;2023-08-01T10:08:02;153280.50;;;41.13;22.30
6853;BME280;3465;42.144;24.722;2023-08-01T10:10:28;153089.66;;;40.39;22.50
6853;BME280;3465;42.144;24.722;2023-08-01T10:12:56;153094.75;;;40.41;23.19
6853;BME280;3465;42.144;24.722;2023-08-01T10:15:23;152898.88;;;39.64;24.59
6853;BME280;3465;42.144;24.722;2023-08-01T10:17:49;152924.47;;;39.74;24.69
6853;BME280;3465;42.144;24.722;2023-08-01T10:20:15;152987.25;;;39.99;24.26
6853;BME280;3465;42.144;24.722;2023-08-01T10:22:41;153188.22;;;40.77;23.94
6853;BME280;3465;42.144;24.722;2023-08-01T10:25:09;152997.44;;;40.03;24.36
6853;BME280;3465;42.144;24.722;2023-08-01T10:27:35;153026.88;;;40.14;23.91
6853;BME280;3465;42.144;24.722;2023-08-01T10:30:03;152997.44;;;40.03;23.72
6853;BME280;3465;42.144;24.722;2023-08-01T10:32:33;152891.22;;;39.61;24.84
6853;BME280;3465;42.144;24.722;2023-08-01T10:34:59;152831.06;;;39.37;24.63
6853;BME280;3465;42.144;24.722;2023-08-01T10:37:25;152850.28;;;39.45;24.66
6853;BME280;3465;42.144;24.722;2023-08-01T10:39:58;152879.72;;;39.56;25.01
6853;BME280;3465;42.144;24.722;2023-08-01T10:42:24;152907.84;;;39.67;24.86
6853;BME280;3465;42.144;24.722;2023-08-01T10:44:50;152774.72;;;39.15;24.79
6853;BME280;3465;42.144;24.722;2023-08-01T10:47:25;152744.06;;;39.03;25.27
6853;BME280;3465;42.144;24.722;2023-08-01T10:49:51;152591.78;;;38.43;25.33
6853;BME280;3465;42.144;24.722;2023-08-01T10:54:43;152319.50;;;37.37;26.36
6853;BME280;3465;42.144;24.722;2023-08-01T10:57:08;152710.75;;;38.90;25.46
6853;BME280;3465;42.144;24.722;2023-08-01T10:59:40;152921.88;;;39.73;24.36
6853;BME280;3465;42.144;24.722;2023-08-01T11:02:07;152997.44;;;40.03;24.62
6853;BME280;3465;42.144;24.722;2023-08-01T11:04:32;152983.34;;;39.97;24.25
6853;BME280;3465;42.144;24.722;2023-08-01T11:06:58;152727.38;;;38.97;24.27
6853;BME280;3465;42.144;24.722;2023-08-01T11:09:26;152744.06;;;39.03;24.59
6853;BME280;3465;42.144;24.722;2023-08-01T11:11:58;153037.09;;;40.18;23.40
6853;BME280;3465;42.144;24.722;2023-08-01T11:14:26;153219.00;;;40.89;22.78
6853;BME280;3465;42.144;24.722;2023-08-01T11:16:54;153309.94;;;41.25;22.48
6853;BME280;3465;42.144;24.722;2023-08-01T11:19:22;152746.59;;;39.04;24.42
6853;BME280;3465;42.144;24.722;2023-08-01T11:21:49;152403.84;;;37.70;26.07
6853;BME280;3465;42.144;24.722;2023-08-01T11:24:16;152493.31;;;38.05;26.09
6853;BME280;3465;42.144;24.722;2023-08-01T11:26:43;152334.81;;;37.43;26.75
6853;BME280;3465;42.144;24.722;2023-08-01T11:29:09;152471.56;;;37.96;26.42
6853;BME280;3465;42.144;24.722;2023-08-01T11:31:35;152385.91;;;37.63;26.21
6853;BME280;3465;42.144;24.722;2023-08-01T11:34:00;152416.66;;;37.75;26.27
6853;BME280;3465;42.144;24.722;2023-08-01T11:36:27;152371.88;;;37.57;26.57
6853;BME280;3465;42.144;24.722;2023-08-01T11:38:53;152071.59;;;36.39;27.80
6853;BME280;3465;42.144;24.722;2023-08-01T11:41:19;152092.00;;;36.47;28.47
6853;BME280;3465;42.144;24.722;2023-08-01T11:43:45;152171.25;;;36.78;27.78
6853;BME280;3465;42.144;24.722;2023-08-01T11:46:12;152038.34;;;36.26;28.20
6853;BME280;3465;42.144;24.722;2023-08-01T11:48:38;151969.41;;;35.99;28.96
6853;BME280;3465;42.144;24.722;2023-08-01T11:51:04;152176.38;;;36.80;28.65
6853;BME280;3465;42.144;24.722;2023-08-01T11:53:30;152267.03;;;37.16;27.73
6853;BME280;3465;42.144;24.722;2023-08-01T11:55:57;152265.78;;;37.15;27.24
6853;BME280;3465;42.144;24.722;2023-08-01T12:01:06;152469.03;;;37.95;26.69
6853;BME280;3465;42.144;24.722;2023-08-01T12:03:32;152420.47;;;37.76;26.38
6853;BME280;3465;42.144;24.722;2023-08-01T12:06:06;152515.09;;;38.13;26.24
6853;BME280;3465;42.144;24.722;2023-08-01T12:08:33;152472.88;;;37.97;26.75
6853;BME280;3465;42.144;24.722;2023-08-01T12:10:59;152654.50;;;38.68;25.94
6853;BME280;3465;42.144;24.722;2023-08-01T12:13:26;152769.66;;;39.13;25.30
6853;BME280;3465;42.144;24.722;2023-08-01T12:15:53;152953.91;;;39.85;24.83
6853;BME280;3465;42.144;24.722;2023-08-01T12:18:24;153071.72;;;40.32;24.10
6853;BME280;3465;42.144;24.722;2023-08-01T12:20:49;153089.66;;;40.39;23.74
6853;BME280;3465;42.144;24.722;2023-08-01T12:23:15;152932.16;;;39.77;23.96
6853;BME280;3465;42.144;24.722;2023-08-01T12:25:40;152816.97;;;39.32;25.02
6853;BME280;3465;42.144;24.722;2023-08-01T12:28:06;152557.31;;;38.30;26.08
6853;BME280;3465;42.144;24.722;2023-08-01T12:30:31;152590.50;;;38.43;26.45
6853;BME280;3465;42.144;24.722;2023-08-01T12:32:56;152291.41;;;37.25;25.93
6853;BME280;3465;42.144;24.722;2023-08-01T12:35:22;152385.91;;;37.63;26.60
6853;BME280;3465;42.144;24.722;2023-08-01T12:37:47;152353.97;;;37.50;27.38
6853;BME280;3465;42.144;24.722;2023-08-01T12:40:13;152429.44;;;37.80;26.87
6853;BME280;3465;42.144;24.722;2023-08-01T12:42:39;152378.25;;;37.60;27.18
6853;BME280;3465;42.144;24.722;2023-08-01T12:45:04;152339.94;;;37.45;27.20
6853;BME280;3465;42.144;24.722;2023-08-01T12:47:30;151876.19;;;35.62;28.85
6853;BME280;3465;42.144;24.722;2023-08-01T12:49:55;151777.88;;;35.24;30.03
6853;BME280;3465;42.144;24.722;2023-08-01T12:52:25;151604.34;;;34.55;30.60
6853;BME280;3465;42.144;24.722;2023-08-01T12:54:50;151503.53;;;34.16;30.76
6853;BME280;3465;42.144;24.722;2023-08-01T12:57:16;151517.56;;;34.21;31.52
6853;BME280;3465;42.144;24.722;2023-08-01T12:59:41;151476.78;;;34.05;31.33